Time;durP1;ratioP1;P1;durP2;ratioP2;P2;SDS_P1;SDS_P2;PMS_P1;PMS_P2;Temp;Humidity;BMP_temperature;BMP_pressure;BME280_temperature;BME280_humidity;BME280_pressure;Samples;Min_cycle;Max_cycle;Signal;HPM_P1;HPM_P2
2024/01/29 00:01:44;;;;;;;21.88;16.35;;;;;;;2.65;61.40;101116.38;5127653;28;20215;-71
2024/01/29 00:04:11;;;;;;;22.02;16.83;;;;;;;2.68;61.24;101119.00;5127878;28;20184;-70
2024/01/29 00:06:37;;;;;;;22.55;16.77;;;;;;;2.68;61.31;101116.38;5127831;28;20051;-71
2024/01/29 00:09:05;;;;;;;22.98;14.80;;;;;;;2.68;61.09;101107.66;5127555;28;20319;-70
2024/01/29 00:11:34;;;;;;;23.40;14.98;;;;;;;2.37;61.41;101064.75;5127840;28;20051;-71
2024/01/29 00:14:01;;;;;;;21.17;15.45;;;;;;;2.58;61.69;101104.13;5126903;28;20035;-70
2024/01/29 00:16:28;;;;;;;24.30;16.67;;;;;;;2.51;61.86;101105.81;5127445;28;20059;-70
2024/01/29 00:18:54;;;;;;;19.80;14.23;;;;;;;2.51;61.79;101097.09;5126525;28;20036;-70
2024/01/29 00:21:21;;;;;;;22.85;15.23;;;;;;;2.49;61.71;101096.22;5127889;28;20043;-70
2024/01/29 00:23:48;;;;;;;22.35;14.75;;;;;;;2.50;61.68;101095.34;5127572;28;20051;-70
2024/01/29 00:26:14;;;;;;;21.83;14.80;;;;;;;2.50;61.58;101103.19;5127471;28;20097;-70
2024/01/29 00:28:42;;;;;;;21.30;16.27;;;;;;;2.44;61.94;101098.81;5127489;28;20061;-69
2024/01/29 00:31:09;;;;;;;19.63;14.85;;;;;;;2.42;61.98;101103.16;5127450;28;20047;-70
2024/01/29 00:33:36;;;;;;;20.05;13.88;;;;;;;2.47;61.75;101109.28;5127289;28;20054;-70
2024/01/29 00:36:03;;;;;;;23.50;16.20;;;;;;;2.47;61.72;101108.41;5126722;28;20089;-70
2024/01/29 00:38:30;;;;;;;21.33;15.77;;;;;;;2.39;62.03;101121.47;5127011;28;20058;-70
2024/01/29 00:40:57;;;;;;;20.02;15.15;;;;;;;2.45;63.48;101121.50;5127251;28;20043;-70
2024/01/29 00:43:23;;;;;;;22.55;14.30;;;;;;;2.48;63.93;101116.28;5126935;28;20292;-69
2024/01/29 00:45:51;;;;;;;27.38;15.98;;;;;;;2.48;64.36;101124.13;5125976;28;20177;-70
2024/01/29 00:48:20;;;;;;;17.85;13.45;;;;;;;2.47;62.96;101121.50;5126781;28;20287;-70
2024/01/29 00:50:47;;;;;;;21.58;14.77;;;;;;;2.42;63.01;101121.47;5126838;28;20102;-70
2024/01/29 00:53:14;;;;;;;18.75;14.85;;;;;;;2.18;62.78;101069.88;5127062;28;20051;-70
2024/01/29 00:55:42;;;;;;;19.50;12.88;;;;;;;2.37;63.19;101125.81;5126955;28;20051;-69
2024/01/29 00:58:09;;;;;;;18.30;12.63;;;;;;;2.36;63.18;101121.44;5126968;28;20043;-69
2024/01/29 01:00:38;;;;;;;21.05;13.80;;;;;;;2.41;63.13;101129.31;5126951;28;20051;-70
2024/01/29 01:03:06;;;;;;;18.92;13.15;;;;;;;2.41;63.12;101124.97;5127246;28;20287;-70
2024/01/29 01:05:33;;;;;;;16.60;11.65;;;;;;;2.39;63.39;101124.06;5126858;28;20230;-70
2024/01/29 01:08:01;;;;;;;17.83;12.02;;;;;;;2.43;63.32;101127.59;5125727;28;20051;-69
2024/01/29 01:10:28;;;;;;;16.88;11.65;;;;;;;2.37;63.39;101120.56;5126488;28;20280;-69
2024/01/29 01:12:54;;;;;;;15.63;10.18;;;;;;;2.19;63.48;101092.56;5127018;28;20044;-70
2024/01/29 01:15:21;;;;;;;15.52;10.82;;;;;;;2.38;63.32;101124.06;5127175;28;20050;-70
2024/01/29 01:17:48;;;;;;;18.58;10.13;;;;;;;2.30;63.59;101121.41;5126619;28;20039;-69
2024/01/29 01:20:16;;;;;;;17.17;10.07;;;;;;;2.27;63.85;101116.16;5126726;28;20043;-69
2024/01/29 01:22:43;;;;;;;13.93;9.98;;;;;;;2.31;63.74;101117.03;5126738;28;20280;-70
2024/01/29 01:25:09;;;;;;;14.65;9.85;;;;;;;2.28;63.70;101110.06;5125742;28;20254;-70
2024/01/29 01:27:36;;;;;;;17.02;10.45;;;;;;;2.30;63.62;101113.56;5126766;28;20043;-69
2024/01/29 01:30:03;;;;;;;14.02;10.18;;;;;;;2.28;63.63;101109.19;5126425;28;20039;-71
2024/01/29 01:32:29;;;;;;;14.38;10.43;;;;;;;2.25;63.84;101115.25;5125525;28;20095;-70
2024/01/29 01:34:56;;;;;;;14.55;10.35;;;;;;;2.27;63.72;101110.91;5125920;28;20283;-70
2024/01/29 01:37:24;;;;;;;14.20;9.73;;;;;;;2.18;64.00;101111.72;5126344;28;20043;-70
2024/01/29 01:39:52;;;;;;;13.98;10.65;;;;;;;2.12;64.49;101109.06;5126599;28;20097;-70
2024/01/29 01:42:19;;;;;;;16.10;11.20;;;;;;;2.18;64.21;101105.63;5126380;28;20044;-69
2024/01/29 01:44:47;;;;;;;15.40;10.57;;;;;;;1.86;64.15;101064.44;5126308;28;20048;-70
2024/01/29 01:47:13;;;;;;;17.58;11.63;;;;;;;2.00;65.41;101102.88;5126585;28;20091;-70
2024/01/29 01:49:40;;;;;;;17.05;11.32;;;;;;;1.97;65.33;101100.25;5126000;28;20048;-70
2024/01/29 01:52:08;;;;;;;17.17;11.88;;;;;;;2.08;64.84;101101.19;5125966;28;20119;-70
2024/01/29 01:54:37;;;;;;;18.00;12.05;;;;;;;2.00;65.31;101105.50;5126052;28;20044;-70
2024/01/29 01:57:05;;;;;;;16.65;11.40;;;;;;;2.03;64.97;101101.16;5125942;28;20039;-70
2024/01/29 01:59:35;;;;;;;18.70;12.73;;;;;;;2.01;65.19;101095.03;5126151;28;20049;-70
2024/01/29 02:02:02;;;;;;;19.98;13.35;;;;;;;2.07;64.85;101094.22;5126455;28;20314;-70
2024/01/29 02:04:29;;;;;;;19.08;13.18;;;;;;;2.00;65.32;101095.91;5125858;28;20341;-70
2024/01/29 02:06:56;;;;;;;19.67;12.10;;;;;;;1.77;65.39;101050.41;5126032;28;20051;-70
2024/01/29 02:09:23;;;;;;;19.20;14.05;;;;;;;1.99;65.24;101091.53;5126085;28;20204;-70
2024/01/29 02:11:51;;;;;;;19.00;13.07;;;;;;;1.94;65.68;101089.75;5126030;28;20085;-70
2024/01/29 02:14:18;;;;;;;19.70;13.05;;;;;;;1.74;65.76;101066.06;5125990;28;20108;-69
2024/01/29 02:16:45;;;;;;;21.70;12.85;;;;;;;1.92;65.59;101086.25;5126042;28;20109;-70
2024/01/29 02:19:16;;;;;;;19.67;13.25;;;;;;;1.97;65.46;101084.56;5125932;28;20089;-70
2024/01/29 02:21:43;;;;;;;22.83;12.77;;;;;;;1.89;65.54;101081.88;5126295;28;20078;-70
2024/01/29 02:24:11;;;;;;;18.17;13.07;;;;;;;1.67;65.60;101043.38;5125948;28;20039;-70
2024/01/29 02:26:37;;;;;;;17.63;13.13;;;;;;;1.88;65.40;101073.16;5126195;28;20234;-70
2024/01/29 02:29:04;;;;;;;18.38;13.23;;;;;;;1.82;65.84;101075.72;5125044;28;20039;-70
2024/01/29 02:31:31;;;;;;;14.95;11.55;;;;;;;1.80;65.74;101084.41;5125800;28;20104;-70
2024/01/29 02:33:57;;;;;;;16.85;13.15;;;;;;;1.79;65.29;101077.44;5125512;28;20102;-69
2024/01/29 02:36:24;;;;;;;16.85;11.77;;;;;;;1.81;65.57;101084.44;5126333;28;20069;-69
2024/01/29 02:38:51;;;;;;;15.73;12.95;;;;;;;1.78;65.83;101091.38;5129906;28;20233;-68
2024/01/29 02:41:19;;;;;;;17.40;13.40;;;;;;;1.80;65.61;101087.03;5129660;28;20043;-70
2024/01/29 02:43:45;;;;;;;16.00;12.77;;;;;;;1.84;65.34;101083.59;5130120;28;20043;-69
2024/01/29 02:46:12;;;;;;;16.95;11.63;;;;;;;1.73;66.14;101090.47;5129526;28;20081;-71
2024/01/29 02:48:39;;;;;;;16.48;13.10;;;;;;;1.72;66.66;101080.88;5129489;28;20096;-70
2024/01/29 02:51:07;;;;;;;16.85;12.43;;;;;;;1.69;66.54;101081.72;5129459;28;20051;-70
2024/01/29 02:53:34;;;;;;;16.50;10.93;;;;;;;1.72;66.87;101081.75;5129228;28;20048;-70
2024/01/29 02:56:00;;;;;;;16.15;12.18;;;;;;;1.31;67.09;101015.16;5128546;28;20215;-70
2024/01/29 02:58:29;;;;;;;14.77;11.23;;;;;;;1.70;67.20;101083.47;5129045;28;20043;-69
2024/01/29 03:00:56;;;;;;;13.27;10.02;;;;;;;1.79;66.26;101077.44;5129173;28;20051;-70
2024/01/29 03:03:23;;;;;;;14.88;10.77;;;;;;;1.77;66.53;101080.03;5128129;28;20326;-70
2024/01/29 03:05:49;;;;;;;14.55;11.20;;;;;;;1.79;66.45;101080.06;5129014;28;20096;-70
2024/01/29 03:08:16;;;;;;;18.00;11.10;;;;;;;1.64;67.46;101074.72;5128671;28;20059;-70
2024/01/29 03:10:43;;;;;;;20.10;10.63;;;;;;;1.30;69.24;101084.81;5127880;28;20081;-70
2024/01/29 03:13:09;;;;;;;21.35;10.02;;;;;;;1.48;67.97;101082.38;5128679;28;20319;-70
2024/01/29 03:15:37;;;;;;;15.25;12.15;;;;;;;1.56;67.42;101078.09;5128829;28;20097;-69
2024/01/29 03:18:04;;;;;;;14.88;10.80;;;;;;;1.54;67.43;101079.81;5128583;28;20035;-69
2024/01/29 03:20:31;;;;;;;17.08;10.73;;;;;;;1.54;67.78;101069.38;5128535;28;20303;-70
2024/01/29 03:22:58;;;;;;;15.35;11.02;;;;;;;1.62;67.21;101068.59;5128533;28;20073;-70
2024/01/29 03:25:24;;;;;;;15.07;10.48;;;;;;;1.45;68.19;101069.28;5128461;28;20200;-70
2024/01/29 03:27:51;;;;;;;16.38;10.80;;;;;;;1.46;68.17;101067.56;5128449;28;20096;-71
2024/01/29 03:30:18;;;;;;;18.55;10.57;;;;;;;1.55;67.75;101065.03;5128397;28;20047;-69
2024/01/29 03:32:48;;;;;;;14.82;10.85;;;;;;;1.46;68.09;101063.19;5128914;28;20039;-70
2024/01/29 03:35:15;;;;;;;12.32;9.15;;;;;;;1.45;68.38;101058.84;5128515;28;20234;-69
2024/01/29 03:37:44;;;;;;;15.02;10.60;;;;;;;1.22;68.41;101027.28;5128278;28;20043;-70
2024/01/29 03:40:12;;;;;;;12.30;9.05;;;;;;;1.18;67.76;100995.91;5128463;28;20044;-71
2024/01/29 03:42:39;;;;;;;13.77;9.27;;;;;;;1.43;68.53;101050.09;5128186;28;20245;-70
2024/01/29 03:45:07;;;;;;;12.48;9.55;;;;;;;1.51;67.51;101056.28;5128433;28;20288;-70
2024/01/29 03:47:33;;;;;;;14.65;8.70;;;;;;;1.56;67.62;101043.25;5127674;28;20073;-70
2024/01/29 03:50:01;;;;;;;20.00;10.23;;;;;;;1.43;68.72;101044.00;5127403;28;20058;-70
2024/01/29 03:52:28;;;;;;;12.48;9.55;;;;;;;1.41;68.29;101033.53;5128105;28;20055;-70
2024/01/29 03:54:55;;;;;;;11.95;8.52;;;;;;;1.39;68.71;101037.88;5128135;28;20085;-69
2024/01/29 03:57:21;;;;;;;13.60;9.52;;;;;;;0.83;69.13;100959.00;5127856;28;20039;-69
2024/01/29 03:59:48;;;;;;;14.77;9.30;;;;;;;1.31;68.83;101029.09;5128377;28;20040;-70
2024/01/29 04:02:14;;;;;;;14.30;9.82;;;;;;;0.79;68.77;100934.63;5128027;28;20047;-70
2024/01/29 04:04:43;;;;;;;13.82;10.05;;;;;;;1.36;68.53;101023.91;5127715;28;20043;-70
2024/01/29 04:07:11;;;;;;;13.52;9.27;;;;;;;1.36;68.86;101022.19;5127748;28;20047;-70
2024/01/29 04:09:37;;;;;;;17.15;9.27;;;;;;;1.10;68.44;100979.28;5127655;28;20093;-70
2024/01/29 04:12:04;;;;;;;14.52;9.65;;;;;;;1.25;69.39;101018.59;5127696;28;20040;-70
2024/01/29 04:14:31;;;;;;;12.88;9.55;;;;;;;1.16;69.85;101016.78;5128051;28;20353;-70
2024/01/29 04:16:58;;;;;;;16.50;10.52;;;;;;;1.10;70.26;101013.22;5127372;28;20036;-70
2024/01/29 04:19:24;;;;;;;18.17;9.93;;;;;;;0.80;70.42;100987.69;5127696;28;20043;-70
2024/01/29 04:21:51;;;;;;;12.90;10.23;;;;;;;1.15;69.67;101025.47;5127642;28;20096;-71
2024/01/29 04:24:19;;;;;;;11.23;9.77;;;;;;;1.10;69.76;101021.94;5127301;28;20327;-70
2024/01/29 04:26:45;;;;;;;12.15;9.68;;;;;;;1.22;69.49;101018.56;5127564;28;20040;-71
2024/01/29 04:29:12;;;;;;;12.77;9.25;;;;;;;1.22;69.32;101015.97;5127695;28;20047;-70
2024/01/29 04:31:39;;;;;;;17.10;10.27;;;;;;;1.21;69.52;101022.03;5127387;28;20056;-70
2024/01/29 04:34:06;;;;;;;14.85;10.63;;;;;;;1.10;70.12;101021.06;5127389;28;20241;-71
2024/01/29 04:36:32;;;;;;;12.88;9.77;;;;;;;1.08;70.03;101023.66;5127267;28;20096;-70
2024/01/29 04:38:59;;;;;;;16.30;10.70;;;;;;;0.75;70.38;100974.59;5127595;28;20044;-70
2024/01/29 04:41:28;;;;;;;15.52;10.48;;;;;;;1.02;70.35;101014.88;5127499;28;20063;-71
2024/01/29 04:43:54;;;;;;;15.07;10.00;;;;;;;1.05;70.53;101015.78;5127517;28;20207;-71
2024/01/29 04:46:21;;;;;;;14.90;10.73;;;;;;;-2.11;70.41;100487.69;5127078;28;20039;-70
2024/01/29 04:48:47;;;;;;;13.95;10.63;;;;;;;1.11;69.53;101018.47;5127152;28;20089;-72
2024/01/29 04:51:15;;;;;;;15.75;10.38;;;;;;;1.07;70.08;101015.81;5127102;28;20234;-70
2024/01/29 04:53:42;;;;;;;12.38;10.50;;;;;;;0.85;71.35;101014.72;5127054;28;20039;-70
2024/01/29 04:56:09;;;;;;;13.95;9.38;;;;;;;0.97;70.58;101019.19;5126665;28;20043;-70
2024/01/29 04:58:37;;;;;;;13.27;10.02;;;;;;;1.02;70.50;101025.34;5126691;28;20036;-70
2024/01/29 05:01:04;;;;;;;14.43;11.02;;;;;;;0.22;70.88;100899.25;5126999;28;20284;-70
2024/01/29 05:03:31;;;;;;;16.42;11.07;;;;;;;0.87;70.93;101031.28;5126860;28;20241;-70
2024/01/29 05:05:58;;;;;;;12.85;10.30;;;;;;;0.78;71.91;101039.88;5126686;28;20092;-71
2024/01/29 05:08:24;;;;;;;12.43;10.05;;;;;;;0.78;71.57;101032.03;5126413;28;20304;-71
2024/01/29 05:10:51;;;;;;;14.70;9.48;;;;;;;0.72;72.12;101036.31;5126756;28;20051;-71
2024/01/29 05:13:18;;;;;;;13.63;10.65;;;;;;;0.58;73.04;101039.66;5126404;28;20043;-71
2024/01/29 05:15:46;;;;;;;18.20;10.60;;;;;;;0.76;71.76;101036.38;5127102;28;20043;-71
2024/01/29 05:18:13;;;;;;;15.23;10.65;;;;;;;0.87;70.82;101036.50;5126304;28;20055;-71
2024/01/29 05:20:39;;;;;;;12.30;9.80;;;;;;;0.77;71.53;101043.34;5126291;28;20067;-70
2024/01/29 05:23:06;;;;;;;15.45;10.23;;;;;;;0.80;71.24;101040.78;5126636;28;20084;-71
2024/01/29 05:25:33;;;;;;;17.90;11.27;;;;;;;0.72;71.97;101045.03;5126597;28;20048;-71
2024/01/29 05:28:00;;;;;;;19.73;11.93;;;;;;;0.64;72.56;101044.06;5126791;28;20089;-71
2024/01/29 05:30:26;;;;;;;15.18;11.05;;;;;;;0.71;72.01;101040.66;5126479;28;20326;-71
2024/01/29 05:32:54;;;;;;;15.15;11.18;;;;;;;0.72;72.02;101049.38;5126487;28;20078;-70
2024/01/29 05:35:21;;;;;;;16.55;11.30;;;;;;;0.76;71.79;101053.78;5126366;28;20043;-71
2024/01/29 05:37:47;;;;;;;18.65;10.93;;;;;;;0.80;71.67;101053.81;5126402;28;20054;-71
2024/01/29 05:40:14;;;;;;;16.00;11.77;;;;;;;0.84;71.17;101058.22;5126256;28;20104;-71
2024/01/29 05:42:41;;;;;;;17.17;11.25;;;;;;;0.45;72.36;101027.31;5125999;28;20047;-71
2024/01/29 05:45:08;;;;;;;15.70;10.57;;;;;;;0.54;72.88;101060.47;5125860;28;20039;-71
2024/01/29 05:47:35;;;;;;;14.85;11.98;;;;;;;0.20;73.30;101018.28;5126116;28;20047;-71
2024/01/29 05:50:05;;;;;;;13.25;10.38;;;;;;;0.50;73.26;101062.16;5126195;28;20039;-71
2024/01/29 05:52:33;;;;;;;15.25;11.55;;;;;;;0.53;73.02;101062.19;5126176;28;20044;-71
2024/01/29 05:55:00;;;;;;;16.92;11.50;;;;;;;0.29;72.86;101025.38;5126078;28;20051;-71
2024/01/29 05:57:26;;;;;;;12.88;11.50;;;;;;;-0.05;73.28;100995.34;5125789;28;20100;-70
2024/01/29 05:59:53;;;;;;;17.77;12.45;;;;;;;0.49;73.19;101063.00;5125780;28;20043;-71
2024/01/29 06:02:20;;;;;;;18.23;12.07;;;;;;;-0.14;72.60;100951.81;5125722;28;20043;-71
2024/01/29 06:04:46;;;;;;;15.48;12.15;;;;;;;0.60;72.46;101061.41;5125299;28;20110;-71
2024/01/29 06:07:15;;;;;;;17.98;11.80;;;;;;;0.58;72.38;101060.53;5125659;28;20105;-71
2024/01/29 06:09:41;;;;;;;15.93;12.90;;;;;;;0.56;72.81;101061.34;5124759;28;20093;-71
2024/01/29 06:12:08;;;;;;;13.75;12.25;;;;;;;0.50;72.87;101059.53;5128206;28;20100;-71
2024/01/29 06:14:35;;;;;;;18.67;13.35;;;;;;;0.07;72.32;100969.47;5130323;28;20043;-71
2024/01/29 06:17:01;;;;;;;16.88;12.70;;;;;;;0.66;71.77;101062.34;5129354;28;20043;-71
2024/01/29 06:19:30;;;;;;;16.27;12.88;;;;;;;0.57;72.33;101060.50;5130032;28;20058;-71
2024/01/29 06:21:56;;;;;;;16.73;13.75;;;;;;;0.57;72.37;101063.13;5129914;28;20043;-71
2024/01/29 06:24:24;;;;;;;21.98;13.65;;;;;;;0.55;72.47;101060.47;5128846;28;20051;-71
2024/01/29 06:26:51;;;;;;;17.05;12.30;;;;;;;0.43;72.93;101054.22;5129596;28;20318;-71
2024/01/29 06:29:18;;;;;;;16.60;12.93;;;;;;;0.43;72.93;101055.09;5129727;28;20291;-71
2024/01/29 06:31:45;;;;;;;16.27;12.88;;;;;;;0.45;73.01;101063.81;5128575;28;20299;-71
2024/01/29 06:34:11;;;;;;;17.55;13.13;;;;;;;0.06;73.37;101022.44;5129992;28;20097;-71
2024/01/29 06:36:38;;;;;;;19.27;13.43;;;;;;;0.35;73.15;101066.28;5129679;28;20039;-70
2024/01/29 06:39:07;;;;;;;17.40;12.77;;;;;;;0.26;73.70;101067.06;5129597;28;20082;-71
2024/01/29 06:41:35;;;;;;;17.98;13.07;;;;;;;-0.31;73.96;100987.16;5129480;28;20199;-71
2024/01/29 06:44:02;;;;;;;18.50;14.52;;;;;;;0.19;73.97;101070.44;5129603;28;20043;-71
2024/01/29 06:46:28;;;;;;;19.88;14.02;;;;;;;0.26;73.63;101072.25;5129551;28;20067;-71
2024/01/29 06:48:55;;;;;;;18.88;13.90;;;;;;;0.14;73.18;101046.91;5129495;28;20196;-71
2024/01/29 06:51:22;;;;;;;31.10;13.88;;;;;;;0.17;74.21;101083.44;5129307;28;20043;-71
2024/01/29 06:53:48;;;;;;;20.33;14.57;;;;;;;0.14;74.13;101085.13;5129361;28;20260;-71
2024/01/29 06:56:15;;;;;;;17.50;13.90;;;;;;;0.26;73.69;101090.53;5129502;28;20039;-71
2024/01/29 06:58:45;;;;;;;20.33;14.82;;;;;;;0.30;73.32;101089.72;5129517;28;20039;-71
2024/01/29 07:01:11;;;;;;;20.83;13.90;;;;;;;0.32;73.29;101093.22;5129278;28;20051;-70
2024/01/29 07:03:38;;;;;;;19.48;13.52;;;;;;;0.28;73.64;101094.91;5128904;28;20096;-71
2024/01/29 07:06:05;;;;;;;17.33;13.18;;;;;;;0.29;73.34;101096.66;5129066;28;20088;-71
2024/01/29 07:08:32;;;;;;;20.42;14.88;;;;;;;0.16;74.27;101101.66;5128603;28;20051;-71
2024/01/29 07:10:58;;;;;;;19.10;16.23;;;;;;;0.21;74.01;101095.66;5129283;28;20103;-71
2024/01/29 07:13:25;;;;;;;18.83;15.10;;;;;;;0.19;74.36;101109.53;5128900;28;20043;-71
2024/01/29 07:15:53;;;;;;;20.05;14.77;;;;;;;-0.17;73.97;101042.09;5128798;28;20040;-71
2024/01/29 07:18:20;;;;;;;16.92;14.05;;;;;;;0.18;74.43;101116.47;5128910;28;20039;-71
2024/01/29 07:20:47;;;;;;;19.50;14.77;;;;;;;0.13;74.87;101112.94;5128537;28;20208;-71
2024/01/29 07:23:13;;;;;;;21.50;15.70;;;;;;;0.21;74.36;101107.81;5127270;28;20063;-71
2024/01/29 07:25:40;;;;;;;17.25;13.82;;;;;;;0.28;73.87;101107.94;5128853;28;20039;-71
2024/01/29 07:28:08;;;;;;;19.33;14.20;;;;;;;-0.46;74.88;101032.09;5128360;28;20092;-71
2024/01/29 07:30:35;;;;;;;20.80;14.48;;;;;;;0.30;73.72;101118.41;5128650;28;20047;-71
2024/01/29 07:33:03;;;;;;;14.32;12.40;;;;;;;0.32;73.58;101123.63;5128805;28;20043;-71
2024/01/29 07:35:30;;;;;;;19.33;15.02;;;;;;;0.06;73.85;101086.75;5129336;28;20061;-71
2024/01/29 07:37:57;;;;;;;17.13;14.02;;;;;;;0.29;73.84;101127.06;5128596;28;20047;-71
2024/01/29 07:40:23;;;;;;;17.67;13.80;;;;;;;0.27;74.18;101129.66;5128264;28;20043;-71
2024/01/29 07:42:50;;;;;;;22.30;14.77;;;;;;;0.31;74.36;101133.19;5128377;28;20049;-71
2024/01/29 07:45:17;;;;;;;15.95;12.90;;;;;;;0.34;74.40;101137.56;5128563;28;20185;-71
2024/01/29 07:47:45;;;;;;;15.13;13.02;;;;;;;0.45;74.33;101134.25;5128538;28;20066;-71
2024/01/29 07:50:14;;;;;;;18.40;13.95;;;;;;;0.47;74.55;101144.72;5128272;28;20104;-71
2024/01/29 07:52:40;;;;;;;18.20;14.48;;;;;;;0.57;74.17;101133.56;5128489;28;20288;-71
2024/01/29 07:55:07;;;;;;;19.88;14.82;;;;;;;0.31;74.23;101061.91;5127835;28;20329;-71
2024/01/29 07:57:34;;;;;;;20.23;14.15;;;;;;;0.76;74.07;101142.50;5127778;28;20044;-71
2024/01/29 08:00:01;;;;;;;18.52;12.75;;;;;;;0.85;73.20;101140.00;5127691;28;20040;-71
2024/01/29 08:02:27;;;;;;;19.35;13.55;;;;;;;0.97;72.76;101142.78;5128032;28;20039;-71
2024/01/29 08:04:54;;;;;;;17.45;13.27;;;;;;;0.91;73.52;101140.97;5128186;28;20085;-71
2024/01/29 08:07:22;;;;;;;20.55;14.27;;;;;;;0.77;72.50;101077.28;5127607;28;20051;-71
2024/01/29 08:09:49;;;;;;;18.50;14.07;;;;;;;0.82;72.00;101095.59;5127895;28;20074;-71
2024/01/29 08:12:15;;;;;;;16.23;12.35;;;;;;;1.12;72.12;101152.53;5127840;28;20085;-71
2024/01/29 08:14:42;;;;;;;20.70;13.70;;;;;;;1.25;71.73;101144.84;5128048;28;20177;-71
2024/01/29 08:17:09;;;;;;;17.52;13.48;;;;;;;1.29;71.31;101150.09;5127891;28;20169;-72
2024/01/29 08:19:35;;;;;;;17.75;13.93;;;;;;;1.37;71.13;101149.31;5128002;28;20292;-71
2024/01/29 08:22:03;;;;;;;18.00;12.40;;;;;;;1.47;71.08;101145.94;5127625;28;20242;-71
2024/01/29 08:24:31;;;;;;;19.70;13.05;;;;;;;1.57;70.10;101137.34;5127802;28;20160;-71
2024/01/29 08:26:58;;;;;;;17.08;12.95;;;;;;;1.73;70.10;101146.25;5127844;28;20035;-71
2024/01/29 08:29:24;;;;;;;20.02;12.90;;;;;;;1.69;69.42;101141.84;5127716;28;20112;-71
2024/01/29 08:31:51;;;;;;;17.48;13.40;;;;;;;1.75;69.12;101141.03;5126251;28;20043;-70
2024/01/29 08:34:18;;;;;;;17.38;14.23;;;;;;;1.88;69.50;101141.13;5126915;28;20067;-71
2024/01/29 08:36:44;;;;;;;18.65;14.73;;;;;;;1.82;68.79;101137.59;5127306;28;20070;-71
2024/01/29 08:39:11;;;;;;;21.45;14.23;;;;;;;1.89;68.47;101129.81;5127312;28;20218;-71
2024/01/29 08:41:39;;;;;;;19.00;13.23;;;;;;;1.98;68.23;101133.38;5126955;28;20039;-71
2024/01/29 08:44:06;;;;;;;15.23;13.00;;;;;;;2.07;68.14;101138.69;5126878;27;20063;-71
2024/01/29 08:46:33;;;;;;;17.55;14.38;;;;;;;1.76;67.56;101072.19;5127152;28;20039;-71
2024/01/29 08:49:00;;;;;;;15.45;13.18;;;;;;;2.32;67.31;101126.66;5127125;28;20111;-71
2024/01/29 08:51:26;;;;;;;16.98;12.98;;;;;;;2.40;66.87;101127.56;5126911;28;20051;-71
2024/01/29 08:53:53;;;;;;;17.40;13.45;;;;;;;2.41;66.48;101129.31;5126847;28;20039;-71
2024/01/29 08:56:20;;;;;;;21.63;14.50;;;;;;;2.62;66.47;101129.44;5125874;28;20039;-71
2024/01/29 08:58:48;;;;;;;14.93;13.38;;;;;;;2.73;66.51;101125.13;5126566;28;20212;-71
2024/01/29 09:01:14;;;;;;;22.33;17.15;;;;;;;2.75;65.52;101119.91;5124929;28;20039;-71
2024/01/29 09:03:41;;;;;;;18.17;14.63;;;;;;;2.84;66.04;101114.72;5125779;28;20048;-71
2024/01/29 09:06:08;;;;;;;17.45;14.07;;;;;;;2.92;64.89;101127.84;5125838;28;20040;-71
2024/01/29 09:08:34;;;;;;;18.60;14.48;;;;;;;2.92;64.91;101130.44;5124776;28;20051;-71
2024/01/29 09:11:01;;;;;;;19.38;14.38;;;;;;;2.85;64.39;101125.19;5126035;28;20043;-71
2024/01/29 09:13:28;;;;;;;17.05;13.40;;;;;;;2.89;64.12;101128.69;5108198;28;20092;-71
2024/01/29 09:15:56;;;;;;;17.00;13.38;;;;;;;3.00;63.93;101119.13;5125899;28;20292;-71
2024/01/29 09:18:22;;;;;;;20.27;13.95;;;;;;;3.07;63.63;101118.28;5125957;28;20039;-71
2024/01/29 09:20:49;;;;;;;17.48;13.25;;;;;;;3.30;63.15;101122.72;5126313;28;20051;-71
2024/01/29 09:23:15;;;;;;;19.27;15.23;;;;;;;3.41;63.17;101113.13;5126609;28;20043;-71
2024/01/29 09:25:42;;;;;;;18.15;14.20;;;;;;;3.40;62.61;101114.00;5126008;28;20092;-71
2024/01/29 09:28:09;;;;;;;17.88;13.93;;;;;;;3.66;62.22;101116.66;5126451;28;20047;-71
2024/01/29 09:30:35;;;;;;;20.10;13.85;;;;;;;3.70;61.73;101118.41;5125945;28;20055;-71
2024/01/29 09:33:04;;;;;;;17.35;13.00;;;;;;;3.39;61.24;101049.34;5125960;28;20043;-71
2024/01/29 09:35:30;;;;;;;17.08;13.80;;;;;;;3.77;61.47;101126.28;5125755;28;20088;-71
2024/01/29 09:37:57;;;;;;;14.77;12.63;;;;;;;3.73;61.11;101131.53;5125825;28;20111;-71
2024/01/29 09:40:24;;;;;;;18.55;12.20;;;;;;;3.79;61.28;101123.66;5125821;28;20096;-71
2024/01/29 09:42:56;;;;;;;17.20;13.38;;;;;;;3.97;60.59;101118.44;5125832;28;20100;-71
2024/01/29 09:45:24;;;;;;;17.70;13.10;;;;;;;4.11;60.23;101119.28;5125610;28;20050;-71
2024/01/29 09:47:52;;;;;;;17.67;13.15;;;;;;;4.28;60.15;101115.81;5125613;28;20155;-71
2024/01/29 09:50:22;;;;;;;18.40;13.30;;;;;;;3.42;59.63;100986.44;5126464;28;20226;-71
2024/01/29 09:52:52;;;;;;;17.33;13.50;;;;;;;4.27;59.66;101112.31;5126678;28;20058;-71
2024/01/29 09:55:19;;;;;;;17.70;13.18;;;;;;;4.28;59.06;101110.56;5126120;28;20104;-71
2024/01/29 09:57:46;;;;;;;15.93;13.80;;;;;;;4.53;59.24;101104.38;5125179;28;20059;-71
2024/01/29 10:00:13;;;;;;;18.27;12.50;;;;;;;4.45;59.09;101061.50;5126043;28;20280;-71
2024/01/29 10:02:42;;;;;;;22.23;14.05;;;;;;;4.30;58.91;100980.19;5125838;28;20056;-71
2024/01/29 10:05:12;;;;;;;23.60;12.23;;;;;;;4.97;58.64;101103.38;5126244;28;20055;-71
2024/01/29 10:07:41;;;;;;;16.38;13.43;;;;;;;5.08;58.11;101099.81;5125764;28;20113;-71
2024/01/29 10:10:09;;;;;;;15.80;11.48;;;;;;;5.14;57.62;101096.28;5126261;28;20096;-71
2024/01/29 10:12:35;;;;;;;14.73;12.25;;;;;;;5.29;57.58;101084.78;5125211;28;20062;-71
2024/01/29 10:15:02;;;;;;;14.30;12.20;;;;;;;5.32;57.50;101080.41;5125947;28;20055;-71
2024/01/29 10:17:29;;;;;;;13.93;11.68;;;;;;;3.50;57.19;100756.66;5125777;28;20059;-71
2024/01/29 10:19:56;;;;;;;14.13;11.25;;;;;;;5.66;56.48;101074.91;5125648;28;20284;-71
2024/01/29 10:22:24;;;;;;;13.50;11.77;;;;;;;5.71;56.67;101070.47;5125766;28;20242;-71
2024/01/29 10:25:01;;;;;;;13.18;11.48;;;;;;;6.08;56.35;101063.13;5125878;28;20189;-71
2024/01/29 10:27:28;;;;;;;15.50;12.27;;;;;;;6.14;55.44;101059.56;5125906;28;20306;-71
2024/01/29 10:29:54;;;;;;;15.48;12.07;;;;;;;6.07;55.52;101062.25;5125513;28;20043;-71
2024/01/29 10:32:21;;;;;;;16.30;11.75;;;;;;;5.65;56.17;101012.66;5125430;28;20043;-71
2024/01/29 10:34:48;;;;;;;13.82;11.90;;;;;;;6.06;55.85;101060.50;5125464;28;20292;-72
2024/01/29 10:37:16;;;;;;;14.45;11.45;;;;;;;6.13;55.28;101050.78;5125803;28;20047;-71
2024/01/29 10:39:44;;;;;;;17.15;12.00;;;;;;;6.28;55.51;101052.38;5125712;28;20040;-72
2024/01/29 10:42:14;;;;;;;16.50;11.20;;;;;;;6.48;54.62;101041.63;5125384;28;20345;-72
2024/01/29 10:44:41;;;;;;;16.38;11.02;;;;;;;6.54;54.53;101046.81;5125615;28;20301;-71
2024/01/29 10:47:14;;;;;;;15.98;11.93;;;;;;;6.64;54.26;101044.06;5125582;28;20114;-72
2024/01/29 10:49:43;;;;;;;14.95;10.90;;;;;;;6.61;54.46;101044.09;5125435;28;20043;-71
2024/01/29 10:52:12;;;;;;;14.98;11.13;;;;;;;6.87;53.71;101029.75;5125566;28;20055;-72
2024/01/29 10:54:39;;;;;;;14.65;11.40;;;;;;;6.86;53.76;101036.78;5125410;28;20043;-72
2024/01/29 10:57:09;;;;;;;15.13;12.68;;;;;;;7.25;52.93;101027.44;5125511;28;20092;-72
2024/01/29 10:59:41;;;;;;;15.57;11.60;;;;;;;7.24;52.51;101028.34;5129468;28;20043;-72
2024/01/29 11:02:11;;;;;;;17.25;12.80;;;;;;;7.46;52.29;101022.75;5129409;28;20043;-72
2024/01/29 11:04:37;;;;;;;15.60;11.90;;;;;;;7.44;52.42;101017.50;5128127;28;20317;-72
2024/01/29 11:07:12;;;;;;;14.65;11.38;;;;;;;7.49;52.69;101025.34;5128021;28;20056;-72
2024/01/29 11:09:44;;;;;;;14.60;10.47;;;;;;;7.19;52.35;101024.03;5128094;28;20085;-72
2024/01/29 11:12:13;;;;;;;12.38;10.95;;;;;;;7.43;52.32;101017.53;5128962;28;20203;-71
2024/01/29 11:14:47;;;;;;;15.77;12.35;;;;;;;7.61;52.22;101007.56;5129251;28;20115;-72
2024/01/29 11:17:14;;;;;;;15.43;10.70;;;;;;;7.59;52.20;101000.56;5128805;28;20063;-72